Time;durP1;ratioP1;P1;durP2;ratioP2;P2;SDS_P1;SDS_P2;PMS_P1;PMS_P2;Temp;Humidity;BMP_temperature;BMP_pressure;BME280_temperature;BME280_humidity;BME280_pressure;Samples;Min_cycle;Max_cycle;Signal;HPM_P1;HPM_P2
2022/10/05 00:01:55;;;;;;;14.40;6.65;;;15.30;99.90;;;;;;6043154;23;20021;-84
2022/10/05 00:04:23;;;;;;;11.82;5.60;;;15.30;99.90;;;;;;6020571;23;20015;-85
2022/10/05 00:06:56;;;;;;;11.90;6.07;;;15.40;99.90;;;;;;6043584;23;20018;-84
2022/10/05 00:09:22;;;;;;;13.27;6.10;;;15.40;99.90;;;;;;6068216;23;20066;-86
2022/10/05 00:11:49;;;;;;;12.75;6.35;;;15.30;99.90;;;;;;6067821;23;20389;-85
2022/10/05 00:14:27;;;;;;;12.27;6.07;;;15.30;99.90;;;;;;5996747;23;20018;-85
2022/10/05 00:16:53;;;;;;;14.27;6.30;;;15.30;99.90;;;;;;6066048;23;20022;-85
2022/10/05 00:19:35;;;;;;;14.77;6.55;;;15.30;99.90;;;;;;6043992;23;20018;-85
2022/10/05 00:22:16;;;;;;;13.63;6.20;;;15.30;99.90;;;;;;6043493;23;20011;-85
2022/10/05 00:24:43;;;;;;;12.77;6.20;;;15.30;99.90;;;;;;6044350;23;20015;-85
2022/10/05 00:27:17;;;;;;;11.73;5.85;;;15.30;99.90;;;;;;6067091;23;20015;-86
2022/10/05 00:29:44;;;;;;;11.35;6.05;;;15.30;99.90;;;;;;6041659;23;20018;-84
2022/10/05 00:32:10;;;;;;;12.88;6.57;;;15.40;99.90;;;;;;6043432;23;20049;-85
2022/10/05 00:34:36;;;;;;;11.48;5.80;;;15.30;99.90;;;;;;6043506;23;20018;-86
2022/10/05 00:37:03;;;;;;;12.50;5.90;;;15.30;99.90;;;;;;6042671;23;20242;-85
2022/10/05 00:39:30;;;;;;;11.55;6.20;;;15.30;99.90;;;;;;6066448;23;20022;-86
2022/10/05 00:42:08;;;;;;;12.38;5.78;;;15.30;99.90;;;;;;6043313;23;20462;-86
2022/10/05 00:44:45;;;;;;;12.30;5.75;;;15.30;99.90;;;;;;6067253;23;20014;-86
2022/10/05 00:47:23;;;;;;;11.77;5.88;;;15.30;99.90;;;;;;6042658;23;20010;-86
2022/10/05 00:50:10;;;;;;;12.05;6.10;;;15.30;99.90;;;;;;6067255;23;20286;-87
2022/10/05 00:53:02;;;;;;;11.63;5.30;;;15.30;99.90;;;;;;6066923;23;20022;-85
2022/10/05 00:55:50;;;;;;;13.07;5.72;;;15.30;99.90;;;;;;6043287;23;20352;-85
2022/10/05 00:58:31;;;;;;;10.60;5.15;;;15.20;99.90;;;;;;6066953;23;20014;-86
2022/10/05 01:01:16;;;;;;;10.02;5.32;;;15.30;99.90;;;;;;6043141;23;20014;-86
2022/10/05 01:04:03;;;;;;;10.02;4.90;;;15.20;99.90;;;;;;6043727;23;20049;-86
2022/10/05 01:07:04;;;;;;;11.13;5.32;;;15.20;99.90;;;;;;6043306;23;20023;-85
2022/10/05 01:10:14;;;;;;;10.15;4.93;;;15.20;99.90;;;;;;6042805;23;20098;-86
2022/10/05 01:13:12;;;;;;;10.85;4.80;;;15.20;99.90;;;;;;6004866;23;20023;-86
2022/10/05 01:16:10;;;;;;;10.30;4.93;;;15.20;99.90;;;;;;6066239;23;20019;-86
2022/10/05 01:18:41;;;;;;;10.32;4.82;;;15.20;99.90;;;;;;6012497;23;20022;-86
2022/10/05 01:21:18;;;;;;;10.65;4.70;;;15.20;99.90;;;;;;6066826;23;20014;-86
2022/10/05 01:24:19;;;;;;;10.32;4.72;;;15.20;99.90;;;;;;6066867;23;20057;-86
2022/10/05 01:26:45;;;;;;;11.88;4.55;;;15.20;99.90;;;;;;5924659;24;20020;-85
2022/10/05 01:29:31;;;;;;;9.85;4.28;;;15.20;99.90;;;;;;6019296;23;20037;-86
2022/10/05 01:32:13;;;;;;;10.40;4.07;;;15.20;99.90;;;;;;6042696;23;20090;-84
2022/10/05 01:35:00;;;;;;;8.55;3.92;;;15.20;99.90;;;;;;6066518;23;20045;-86
2022/10/05 01:38:01;;;;;;;9.13;3.97;;;15.20;99.90;;;;;;6066626;23;20025;-86
2022/10/05 01:40:41;;;;;;;10.25;4.20;;;15.20;99.90;;;;;;5964847;23;20053;-86
2022/10/05 01:43:14;;;;;;;10.57;4.13;;;15.20;99.90;;;;;;6042763;23;20018;-85
2022/10/05 01:45:52;;;;;;;10.88;3.97;;;15.20;99.90;;;;;;6066732;23;20019;-86
2022/10/05 01:48:46;;;;;;;9.05;4.20;;;15.20;99.90;;;;;;6042085;23;20018;-86
2022/10/05 01:51:25;;;;;;;8.85;4.30;;;15.30;99.90;;;;;;6044245;23;20218;-86
2022/10/05 01:54:38;;;;;;;9.93;4.00;;;15.20;99.90;;;;;;6044746;23;20015;-86
2022/10/05 01:57:12;;;;;;;11.10;4.47;;;15.30;99.90;;;;;;6068289;23;20514;-85
2022/10/05 02:00:03;;;;;;;8.68;4.10;;;15.20;99.90;;;;;;6044013;23;20053;-86
2022/10/05 02:02:33;;;;;;;8.65;4.13;;;15.30;99.90;;;;;;6045238;23;20018;-85
2022/10/05 02:05:13;;;;;;;11.07;4.57;;;15.40;99.90;;;;;;6068342;23;20069;-86
2022/10/05 02:07:52;;;;;;;9.35;4.90;;;15.30;99.90;;;;;;6045154;23;20076;-86
2022/10/05 02:10:34;;;;;;;10.18;5.00;;;15.30;99.90;;;;;;6044138;23;20041;-85
2022/10/05 02:13:20;;;;;;;11.73;5.03;;;15.30;99.90;;;;;;6044664;23;20014;-86
2022/10/05 02:15:57;;;;;;;11.70;5.20;;;15.30;99.90;;;;;;6068469;23;20018;-84
2022/10/05 02:18:39;;;;;;;10.32;5.10;;;15.30;99.90;;;;;;6044812;23;20190;-87
2022/10/05 02:21:07;;;;;;;11.18;4.82;;;15.30;99.90;;;;;;6044312;23;20014;-86
2022/10/05 02:23:37;;;;;;;12.35;5.38;;;15.30;99.90;;;;;;6044864;23;20077;-86
2022/10/05 02:26:05;;;;;;;10.98;5.15;;;15.30;99.90;;;;;;6068047;23;20014;-86
2022/10/05 02:28:42;;;;;;;10.65;4.95;;;15.20;99.90;;;;;;6067733;23;20010;-85
2022/10/05 02:31:18;;;;;;;10.13;4.75;;;15.20;99.90;;;;;;6044435;23;20468;-85
2022/10/05 02:33:44;;;;;;;11.05;5.00;;;15.20;99.90;;;;;;6044805;23;20046;-85
2022/10/05 02:36:12;;;;;;;10.68;5.00;;;15.20;99.90;;;;;;6044499;23;20476;-86
2022/10/05 02:39:10;;;;;;;14.23;5.30;;;15.20;99.90;;;;;;6068292;23;20097;-86
2022/10/05 02:42:10;;;;;;;9.95;4.80;;;15.20;99.90;;;;;;6005359;23;20014;-85
2022/10/05 02:45:08;;;;;;;11.23;5.13;;;15.10;99.90;;;;;;6044094;23;20069;-86
2022/10/05 02:47:44;;;;;;;11.75;4.93;;;15.20;99.90;;;;;;6092129;23;20344;-85
2022/10/05 02:50:31;;;;;;;11.32;4.90;;;15.10;99.90;;;;;;6068285;23;20097;-85
2022/10/05 02:53:25;;;;;;;10.00;4.60;;;15.10;99.90;;;;;;6068736;23;20523;-85
2022/10/05 02:56:01;;;;;;;10.88;5.13;;;15.10;99.90;;;;;;6068743;23;20503;-86
2022/10/05 02:58:37;;;;;;;11.38;5.10;;;15.10;99.90;;;;;;6093559;23;20069;-86
2022/10/05 03:01:23;;;;;;;10.38;4.78;;;15.10;99.90;;;;;;6067389;23;20046;-86
2022/10/05 03:04:14;;;;;;;12.40;5.45;;;15.10;99.90;;;;;;6044406;23;20014;-85
2022/10/05 03:06:51;;;;;;;10.30;5.10;;;15.10;99.90;;;;;;6044860;23;20010;-86
2022/10/05 03:09:21;;;;;;;11.88;5.13;;;15.10;99.90;;;;;;6044124;23;20014;-85
2022/10/05 03:12:06;;;;;;;10.15;4.78;;;15.10;99.90;;;;;;6044747;23;20290;-86
2022/10/05 03:14:38;;;;;;;10.52;4.68;;;15.10;99.90;;;;;;6044032;23;20057;-85
2022/10/05 03:17:44;;;;;;;10.33;4.73;;;15.10;99.90;;;;;;6044816;23;20018;-85
2022/10/05 03:20:15;;;;;;;11.35;5.10;;;15.10;99.90;;;;;;5952913;24;20557;-86
2022/10/05 03:23:00;;;;;;;10.52;5.30;;;15.10;99.90;;;;;;6028153;23;20033;-86
2022/10/05 03:25:56;;;;;;;10.02;5.13;;;15.10;99.90;;;;;;6067351;23;20010;-86
2022/10/05 03:28:37;;;;;;;11.73;4.90;;;15.10;99.90;;;;;;6043598;23;20015;-86
2022/10/05 03:31:13;;;;;;;13.52;4.63;;;15.10;99.90;;;;;;6044031;23;20459;-86
2022/10/05 03:33:51;;;;;;;11.75;5.15;;;15.00;99.90;;;;;;6043888;23;20105;-85
2022/10/05 03:36:19;;;;;;;10.68;4.97;;;15.00;99.90;;;;;;6042629;23;20014;-86
2022/10/05 03:39:16;;;;;;;11.10;4.95;;;15.10;99.90;;;;;;6067923;23;20041;-86
2022/10/05 03:41:44;;;;;;;10.98;4.68;;;15.10;99.90;;;;;;6067025;23;20037;-86
2022/10/05 03:44:42;;;;;;;10.98;4.85;;;15.10;99.90;;;;;;6043618;23;20014;-86
2022/10/05 03:47:19;;;;;;;9.70;4.50;;;15.10;99.90;;;;;;6042573;23;20467;-87
2022/10/05 03:49:51;;;;;;;10.23;4.65;;;15.10;99.90;;;;;;6043701;23;20019;-86
2022/10/05 03:52:21;;;;;;;9.43;4.30;;;15.00;99.90;;;;;;6044003;23;20022;-86
2022/10/05 03:54:54;;;;;;;10.48;4.97;;;15.00;99.90;;;;;;6043963;23;20022;-86
2022/10/05 03:57:26;;;;;;;;;;;15.00;99.90;;;;;;6067384;23;20058;-86
2022/10/05 03:59:59;;;;;;;10.40;4.13;;;15.00;99.90;;;;;;6043837;23;19921;-86
2022/10/05 04:02:33;;;;;;;11.13;4.65;;;15.00;99.90;;;;;;6043197;23;20090;-86
2022/10/05 04:05:04;;;;;;;11.15;5.03;;;15.00;99.90;;;;;;6043782;23;20021;-87
2022/10/05 04:07:37;;;;;;;10.48;4.72;;;15.00;99.90;;;;;;6043335;23;20014;-86
2022/10/05 04:10:10;;;;;;;9.80;4.80;;;15.00;99.90;;;;;;6066749;23;20077;-86
2022/10/05 04:12:40;;;;;;;12.15;5.30;;;15.00;99.90;;;;;;6067269;23;20018;-86
2022/10/05 04:15:22;;;;;;;11.30;5.30;;;14.90;99.90;;;;;;6042990;23;20037;-86
2022/10/05 04:17:55;;;;;;;10.65;5.13;;;15.00;99.90;;;;;;6043554;23;20018;-87
2022/10/05 04:20:39;;;;;;;12.15;4.95;;;15.00;99.90;;;;;;6042951;23;20014;-86
2022/10/05 04:23:17;;;;;;;11.20;5.40;;;15.00;99.90;;;;;;6067812;23;20010;-86
2022/10/05 04:25:49;;;;;;;11.13;5.30;;;15.00;99.90;;;;;;6043317;23;20445;-86
2022/10/05 04:28:20;;;;;;;11.77;4.90;;;14.90;99.90;;;;;;6066554;23;20011;-85
2022/10/05 04:30:50;;;;;;;10.27;5.03;;;14.90;99.90;;;;;;6042805;23;20047;-86
2022/10/05 04:33:15;;;;;;;10.52;4.70;;;14.90;99.90;;;;;;6043147;23;20419;-85
2022/10/05 04:35:53;;;;;;;10.77;4.90;;;14.90;99.90;;;;;;6019470;23;20064;-86
2022/10/05 04:38:30;;;;;;;10.68;4.75;;;14.90;99.90;;;;;;6043138;23;20020;-85
2022/10/05 04:40:59;;;;;;;10.38;4.75;;;14.90;99.90;;;;;;6042351;23;20014;-86
2022/10/05 04:43:44;;;;;;;11.27;5.32;;;14.90;99.90;;;;;;6043326;23;20540;-86
2022/10/05 04:46:18;;;;;;;10.23;4.75;;;14.90;99.90;;;;;;6066375;23;20014;-86
2022/10/05 04:49:22;;;;;;;9.60;4.70;;;14.90;99.90;;;;;;6042623;23;20042;-86
2022/10/05 04:51:52;;;;;;;10.18;4.65;;;14.90;99.90;;;;;;6067435;23;20026;-85
2022/10/05 04:55:03;;;;;;;9.88;4.80;;;14.90;99.90;;;;;;6042792;23;20046;-85
2022/10/05 04:57:47;;;;;;;11.20;4.78;;;14.90;99.90;;;;;;5901321;24;20025;-85
2022/10/05 05:00:25;;;;;;;10.95;5.20;;;14.90;99.90;;;;;;5923939;24;20017;-85
2022/10/05 05:03:14;;;;;;;11.70;5.15;;;14.90;99.90;;;;;;6020284;23;20018;-84
2022/10/05 05:06:20;;;;;;;10.45;5.00;;;14.90;99.90;;;;;;6041343;23;20010;-85
2022/10/05 05:09:04;;;;;;;10.52;4.88;;;14.90;99.90;;;;;;6041787;23;20045;-84
2022/10/05 05:11:39;;;;;;;10.40;5.47;;;14.90;99.90;;;;;;6065234;23;20401;-85
2022/10/05 05:14:41;;;;;;;11.90;5.53;;;14.90;99.90;;;;;;6043769;23;20344;-85
2022/10/05 05:17:17;;;;;;;11.40;5.25;;;14.90;99.90;;;;;;6043613;23;20022;-86
2022/10/05 05:19:45;;;;;;;10.70;5.13;;;15.00;99.90;;;;;;6043967;23;20018;-86
2022/10/05 05:22:14;;;;;;;11.23;5.50;;;14.90;99.90;;;;;;6042943;23;20010;-84
2022/10/05 05:24:42;;;;;;;11.15;5.78;;;15.00;99.90;;;;;;6043820;23;20015;-85
2022/10/05 05:27:17;;;;;;;11.88;5.30;;;15.00;99.90;;;;;;6043573;23;20026;-86
2022/10/05 05:30:05;;;;;;;10.52;5.25;;;15.00;99.90;;;;;;6043358;23;20263;-86
2022/10/05 05:32:45;;;;;;;11.52;5.32;;;15.00;99.90;;;;;;6042466;23;20452;-86
2022/10/05 05:35:39;;;;;;;12.98;5.53;;;15.00;99.90;;;;;;6042433;23;20045;-85
2022/10/05 05:38:20;;;;;;;;;;;15.00;99.90;;;;;;6068070;23;20478;-86
2022/10/05 05:41:12;;;;;;;11.95;5.50;;;14.90;99.90;;;;;;6067323;23;19992;-85
2022/10/05 05:43:55;;;;;;;11.02;5.00;;;14.90;99.90;;;;;;6042566;23;20082;-85
2022/10/05 05:46:37;;;;;;;12.57;5.18;;;14.90;99.90;;;;;;6042492;23;20070;-87
2022/10/05 05:49:16;;;;;;;11.65;5.10;;;14.90;99.90;;;;;;6067182;23;20098;-85
2022/10/05 05:51:46;;;;;;;11.95;5.18;;;14.90;99.90;;;;;;6042900;23;20026;-85
2022/10/05 05:54:14;;;;;;;13.25;4.60;;;14.90;99.90;;;;;;6043587;23;20482;-86
2022/10/05 05:56:52;;;;;;;11.48;5.20;;;15.00;99.90;;;;;;6067568;23;20029;-85
2022/10/05 05:59:33;;;;;;;10.18;5.00;;;15.00;99.90;;;;;;6067682;23;20014;-85
2022/10/05 06:02:09;;;;;;;13.43;4.75;;;15.00;99.90;;;;;;6029688;23;20030;-85
2022/10/05 06:04:40;;;;;;;9.38;4.25;;;15.00;99.90;;;;;;6041679;23;20021;-84
2022/10/05 06:07:10;;;;;;;11.55;4.63;;;15.00;99.90;;;;;;6044203;23;20085;-85
2022/10/05 06:09:38;;;;;;;9.55;4.45;;;15.00;99.90;;;;;;6069190;23;20336;-85
2022/10/05 06:12:04;;;;;;;9.55;4.30;;;15.00;99.90;;;;;;6066826;23;20089;-86
2022/10/05 06:14:54;;;;;;;11.18;4.50;;;15.00;99.90;;;;;;6067685;23;20407;-85
2022/10/05 06:17:26;;;;;;;11.27;4.35;;;15.00;99.90;;;;;;6044590;23;20037;-85
2022/10/05 06:19:56;;;;;;;10.07;4.30;;;15.00;99.90;;;;;;6066872;23;20015;-84
2022/10/05 06:22:25;;;;;;;10.35;4.45;;;15.00;99.90;;;;;;6041229;23;20042;-84
2022/10/05 06:25:12;;;;;;;10.30;4.40;;;15.00;99.90;;;;;;6066689;23;20014;-85
2022/10/05 06:28:00;;;;;;;10.50;5.10;;;15.00;99.90;;;;;;6067298;23;20522;-85
2022/10/05 06:30:41;;;;;;;10.20;4.15;;;15.00;99.90;;;;;;6042873;23;20025;-86
2022/10/05 06:33:38;;;;;;;12.38;4.18;;;15.00;99.90;;;;;;6042444;23;20114;-86
2022/10/05 06:36:12;;;;;;;10.68;4.40;;;15.10;99.90;;;;;;6067336;23;20093;-87
2022/10/05 06:39:13;;;;;;;11.48;4.60;;;15.00;99.90;;;;;;6043775;23;20370;-86
2022/10/05 06:42:05;;;;;;;10.55;4.75;;;15.10;99.90;;;;;;5926171;23;20364;-84
2022/10/05 06:44:57;;;;;;;9.93;4.43;;;15.10;99.90;;;;;;6043988;23;20077;-85
2022/10/05 06:47:34;;;;;;;14.13;4.85;;;15.10;99.90;;;;;;6044471;23;20010;-86
2022/10/05 06:50:41;;;;;;;10.77;4.13;;;15.10;99.90;;;;;;6068807;23;20014;-86
2022/10/05 06:53:18;;;;;;;10.93;4.38;;;15.10;99.90;;;;;;6067233;23;20022;-86
2022/10/05 06:55:47;;;;;;;9.98;4.53;;;15.10;99.90;;;;;;6044840;23;20025;-85
2022/10/05 06:58:19;;;;;;;9.32;4.57;;;15.10;99.90;;;;;;6068472;23;20014;-88
2022/10/05 07:01:11;;;;;;;12.07;4.70;;;15.10;99.90;;;;;;6044349;23;20330;-85
2022/10/05 07:04:11;;;;;;;10.15;4.75;;;15.10;99.90;;;;;;6043932;23;20010;-86
2022/10/05 07:06:47;;;;;;;9.88;4.60;;;15.10;99.90;;;;;;6043460;23;20021;-87
2022/10/05 07:09:39;;;;;;;10.05;4.70;;;15.10;99.90;;;;;;6044657;23;20218;-86
2022/10/05 07:12:20;;;;;;;12.43;5.03;;;15.10;99.90;;;;;;6044449;23;20019;-85
2022/10/05 07:15:13;;;;;;;9.40;4.40;;;15.10;99.90;;;;;;6066266;23;20018;-87
2022/10/05 07:18:03;;;;;;;10.05;4.57;;;15.00;99.90;;;;;;6043902;23;20023;-86
2022/10/05 07:20:36;;;;;;;10.07;4.40;;;15.10;99.90;;;;;;6067581;23;20363;-86
2022/10/05 07:23:21;;;;;;;9.02;4.32;;;15.10;99.90;;;;;;6043933;23;20017;-86
2022/10/05 07:26:20;;;;;;;11.95;4.63;;;15.10;99.90;;;;;;6067924;23;20021;-87
2022/10/05 07:29:23;;;;;;;9.57;4.22;;;15.10;99.90;;;;;;6037511;23;20018;-86
2022/10/05 07:32:07;;;;;;;11.55;4.50;;;15.10;99.90;;;;;;6068140;23;20018;-86
2022/10/05 07:34:51;;;;;;;10.10;4.72;;;15.10;99.90;;;;;;6044166;23;20326;-87
2022/10/05 07:38:01;;;;;;;10.23;4.60;;;15.20;99.90;;;;;;6043264;23;20475;-86
2022/10/05 07:40:37;;;;;;;11.18;4.75;;;15.20;99.90;;;;;;6012871;23;20022;-86
2022/10/05 07:43:20;;;;;;;9.35;3.97;;;15.20;99.90;;;;;;6042652;23;20022;-86
2022/10/05 07:45:56;;;;;;;8.52;4.00;;;15.20;99.90;;;;;;6043062;23;20034;-86
2022/10/05 07:48:45;;;;;;;9.02;4.20;;;15.30;99.90;;;;;;6065456;23;20014;-85
2022/10/05 07:51:23;;;;;;;9.00;4.07;;;15.30;99.90;;;;;;6067436;23;20535;-87
2022/10/05 07:54:12;;;;;;;9.10;4.28;;;15.40;99.90;;;;;;6067589;23;20018;-87
2022/10/05 07:56:44;;;;;;;10.05;4.20;;;15.30;99.90;;;;;;6043172;23;20018;-86
2022/10/05 07:59:30;;;;;;;15.40;4.03;;;15.40;99.90;;;;;;6043125;23;20494;-86
2022/10/05 08:02:19;;;;;;;9.70;4.10;;;15.40;99.90;;;;;;6043120;23;20060;-86
2022/10/05 08:04:57;;;;;;;8.88;3.55;;;15.40;99.90;;;;;;6043105;23;20430;-86
2022/10/05 08:07:22;;;;;;;9.40;3.17;;;15.40;99.90;;;;;;6042160;23;20014;-88
2022/10/05 08:10:01;;;;;;;9.57;3.30;;;15.40;99.90;;;;;;6042898;23;20065;-86
2022/10/05 08:12:39;;;;;;;8.15;3.22;;;15.40;99.90;;;;;;6043405;23;20018;-85
2022/10/05 08:15:19;;;;;;;7.63;3.20;;;15.40;99.90;;;;;;6043124;23;20020;-86
2022/10/05 08:18:22;;;;;;;7.28;2.97;;;15.40;99.90;;;;;;6067007;23;20018;-86
2022/10/05 08:20:56;;;;;;;7.88;3.25;;;15.50;99.90;;;;;;5977271;23;20022;-85
2022/10/05 08:23:45;;;;;;;7.75;3.00;;;15.50;99.90;;;;;;6042138;23;20488;-87
2022/10/05 08:26:35;;;;;;;6.95;2.80;;;15.50;99.90;;;;;;6043652;23;20022;-85
2022/10/05 08:29:20;;;;;;;7.07;2.63;;;15.50;99.90;;;;;;6065825;23;20452;-84
2022/10/05 08:31:50;;;;;;;7.70;3.10;;;15.50;99.90;;;;;;6066556;23;20025;-86
2022/10/05 08:34:20;;;;;;;8.73;2.50;;;15.50;99.90;;;;;;6067267;23;20153;-87
2022/10/05 08:36:53;;;;;;;7.47;2.88;;;15.50;99.90;;;;;;6050947;23;20560;-85
2022/10/05 08:39:20;;;;;;;;;;;15.60;99.90;;;;;;6062980;23;20019;-85
2022/10/05 08:41:59;;;;;;;7.43;2.60;;;15.60;99.90;;;;;;6067459;23;19917;-87
2022/10/05 08:44:36;;;;;;;6.95;2.65;;;15.70;99.90;;;;;;6067564;23;20022;-87
2022/10/05 08:47:37;;;;;;;8.10;2.90;;;15.80;99.90;;;;;;6067213;23;20045;-85
2022/10/05 08:50:18;;;;;;;6.50;2.50;;;15.80;99.90;;;;;;6043497;23;20049;-87
2022/10/05 08:53:13;;;;;;;9.32;3.50;;;15.20;99.90;;;;;;6067643;23;20101;-87
2022/10/05 08:55:42;;;;;;;9.05;3.38;;;15.90;99.90;;;;;;6043130;23;20053;-87
2022/10/05 08:58:31;;;;;;;9.57;3.08;;;16.00;99.90;;;;;;6067923;23;20021;-86
2022/10/05 09:01:03;;;;;;;8.10;3.35;;;16.00;99.90;;;;;;6067063;23;20737;-86
2022/10/05 09:04:02;;;;;;;8.95;3.40;;;16.10;99.90;;;;;;6067206;23;20022;-86
2022/10/05 09:06:43;;;;;;;7.57;3.40;;;16.10;99.90;;;;;;6043509;23;20025;-86
2022/10/05 09:09:46;;;;;;;7.95;3.40;;;16.20;99.90;;;;;;6069865;23;20031;-86
2022/10/05 09:12:36;;;;;;;9.20;3.70;;;16.20;99.90;;;;;;6069930;23;20014;-87
2022/10/05 09:15:22;;;;;;;8.20;3.30;;;16.30;99.90;;;;;;6067469;23;20016;-86
2022/10/05 09:18:06;;;;;;;8.88;3.45;;;16.40;99.90;;;;;;6049142;23;20046;-87
2022/10/05 09:20:57;;;;;;;11.32;3.40;;;16.40;99.90;;;;;;6068875;23;20014;-89
2022/10/05 09:23:43;;;;;;;8.07;3.35;;;16.50;99.90;;;;;;6042472;23;20051;-88
2022/10/05 09:26:28;;;;;;;9.15;3.47;;;16.60;99.90;;;;;;6042428;23;20026;-87
2022/10/05 09:29:18;;;;;;;8.63;3.70;;;16.60;99.90;;;;;;6066944;23;20464;-88
2022/10/05 09:32:26;;;;;;;9.32;3.55;;;16.60;99.90;;;;;;6066178;23;20014;-87
2022/10/05 09:34:52;;;;;;;9.15;3.50;;;16.70;99.90;;;;;;6066182;23;20338;-87
2022/10/05 09:37:43;;;;;;;8.60;3.45;;;16.70;99.90;;;;;;6065962;23;20076;-88
2022/10/05 09:40:40;;;;;;;7.25;3.08;;;16.70;99.90;;;;;;6065477;23;20078;-89
2022/10/05 09:43:32;;;;;;;9.25;3.50;;;16.70;99.90;;;;;;6065618;23;20025;-88
2022/10/05 09:45:58;;;;;;;8.57;3.63;;;16.80;99.90;;;;;;6066370;23;20015;-87
2022/10/05 09:48:51;;;;;;;8.95;3.58;;;16.80;99.90;;;;;;6066482;23;20319;-87
2022/10/05 09:51:51;;;;;;;8.68;3.30;;;16.90;99.90;;;;;;6066978;23;20018;-89
2022/10/05 09:54:27;;;;;;;9.18;3.47;;;16.90;99.90;;;;;;6066392;23;20015;-86
2022/10/05 09:57:31;;;;;;;9.90;3.30;;;16.90;99.90;;;;;;6066583;23;20085;-89
2022/10/05 10:00:04;;;;;;;;;;;17.00;99.90;;;;;;6066768;23;20149;-87
2022/10/05 10:02:49;;;;;;;;;;;16.90;99.90;;;;;;6067580;23;20386;-87
2022/10/05 10:05:32;;;;;;;8.20;2.85;;;17.00;99.90;;;;;;6066708;23;20303;-87
2022/10/05 10:08:15;;;;;;;8.25;2.92;;;17.00;99.90;;;;;;6065977;23;20022;-87
2022/10/05 10:10:57;;;;;;;10.18;2.97;;;17.10;99.90;;;;;;6066371;23;20471;-86
2022/10/05 10:13:52;;;;;;;8.52;2.90;;;17.10;99.90;;;;;;6067986;23;20018;-85
2022/10/05 10:16:35;;;;;;;9.25;3.00;;;17.00;99.90;;;;;;6043874;23;20055;-87
2022/10/05 10:19:11;;;;;;;12.18;3.25;;;17.00;99.90;;;;;;6067595;23;20102;-84
2022/10/05 10:22:02;;;;;;;9.02;2.95;;;16.90;99.90;;;;;;6068186;23;20018;-86
2022/10/05 10:25:09;;;;;;;7.40;2.80;;;16.90;99.90;;;;;;6068491;23;20412;-86
2022/10/05 10:27:56;;;;;;;7.85;2.70;;;16.80;99.90;;;;;;6068404;23;20018;-87
2022/10/05 10:30:31;;;;;;;8.70;2.70;;;16.70;99.90;;;;;;6043182;23;20018;-87
2022/10/05 10:33:16;;;;;;;7.28;2.67;;;16.70;99.90;;;;;;6068345;23;20079;-85
2022/10/05 10:35:53;;;;;;;6.28;2.60;;;16.60;99.90;;;;;;6068370;23;20022;-86
2022/10/05 10:38:44;;;;;;;8.57;2.70;;;16.60;99.90;;;;;;6044182;23;20061;-89
2022/10/05 10:41:32;;;;;;;7.18;2.70;;;16.60;99.90;;;;;;6067586;23;20045;-87
2022/10/05 10:44:19;;;;;;;7.25;2.70;;;16.60;99.90;;;;;;6044230;23;20021;-87
2022/10/05 10:46:57;;;;;;;7.60;2.67;;;16.50;99.90;;;;;;6067981;23;20022;-86
2022/10/05 10:49:41;;;;;;;7.57;3.00;;;16.50;99.90;;;;;;6044374;23;20045;-87
2022/10/05 10:52:23;;;;;;;7.03;3.03;;;16.40;99.90;;;;;;6043703;23;20251;-85
2022/10/05 10:55:16;;;;;;;7.13;2.80;;;16.50;99.90;;;;;;6041572;23;20461;-86
2022/10/05 10:57:48;;;;;;;;;;;16.50;99.90;;;;;;6044524;23;20014;-87
2022/10/05 11:00:33;;;;;;;7.38;2.80;;;16.50;99.90;;;;;;6066940;23;19996;-87
2022/10/05 11:03:37;;;;;;;7.43;2.90;;;16.50;99.90;;;;;;6066373;23;20076;-87
2022/10/05 11:06:16;;;;;;;7.10;2.85;;;16.40;99.90;;;;;;6068197;23;20022;-88
2022/10/05 11:09:12;;;;;;;9.25;3.03;;;16.50;99.90;;;;;;6041835;23;20073;-87
2022/10/05 11:11:46;;;;;;;8.45;3.00;;;16.50;99.90;;;;;;6067628;23;20066;-86
2022/10/05 11:14:51;;;;;;;8.02;3.10;;;16.50;99.90;;;;;;6044018;23;20011;-87
2022/10/05 11:17:54;;;;;;;7.57;3.20;;;16.50;99.90;;;;;;6066590;23;20010;-86
2022/10/05 11:21:03;;;;;;;7.88;3.25;;;16.50;99.90;;;;;;6066900;23;20019;-86
2022/10/05 11:24:09;;;;;;;7.50;3.05;;;16.50;99.90;;;;;;6067805;23;20457;-86
2022/10/05 11:27:04;;;;;;;8.73;3.20;;;16.50;99.90;;;;;;6042688;23;20348;-90
2022/10/05 11:29:41;;;;;;;7.10;2.80;;;16.50;99.90;;;;;;6013773;23;20085;-88
2022/10/05 11:32:28;;;;;;;7.65;3.20;;;16.50;99.90;;;;;;6044265;23;20034;-86
2022/10/05 11:35:32;;;;;;;8.45;2.92;;;16.50;99.90;;;;;;6044131;23;20023;-86
2022/10/05 11:38:17;;;;;;;8.60;3.30;;;16.50;99.90;;;;;;6068319;23;20022;-88
2022/10/05 11:41:19;;;;;;;7.97;2.90;;;16.50;99.90;;;;;;6067907;23;20018;-88
2022/10/05 11:43:52;;;;;;;7.53;3.28;;;16.50;99.90;;;;;;6067874;23;20067;-86
2022/10/05 11:46:33;;;;;;;7.32;2.83;;;16.50;99.90;;;;;;6043973;23;20171;-88
2022/10/05 11:49:26;;;;;;;7.68;3.00;;;16.50;99.90;;;;;;6043612;23;20022;-88
2022/10/05 11:52:24;;;;;;;7.15;3.00;;;16.50;99.90;;;;;;6043912;23;20111;-89
2022/10/05 11:55:04;;;;;;;8.18;3.05;;;16.50;99.90;;;;;;6043835;23;20026;-86
2022/10/05 11:57:57;;;;;;;8.32;2.97;;;16.50;99.90;;;;;;6044112;23;20101;-87
2022/10/05 12:00:30;;;;;;;8.57;3.22;;;16.50;99.90;;;;;;6068083;23;20089;-87
2022/10/05 12:03:02;;;;;;;;;;;16.50;99.90;;;;;;6045048;23;20014;-86
2022/10/05 12:05:49;;;;;;;7.88;2.90;;;16.40;99.90;;;;;;6068478;23;19919;-88
2022/10/05 12:08:33;;;;;;;7.30;2.90;;;16.40;99.90;;;;;;6044101;23;20346;-88
2022/10/05 12:11:27;;;;;;;9.18;3.20;;;16.40;99.90;;;;;;6043757;23;20330;-89
2022/10/05 12:14:07;;;;;;;6.65;2.70;;;16.40;99.90;;;;;;6045948;23;20014;-87
2022/10/05 12:16:51;;;;;;;8.38;2.90;;;16.40;99.90;;;;;;6051259;23;20021;-87
2022/10/05 12:19:28;;;;;;;7.65;3.10;;;16.40;99.90;;;;;;6043861;23;20015;-88
2022/10/05 12:22:16;;;;;;;7.53;3.40;;;16.40;99.90;;;;;;6050219;23;20085;-88
2022/10/05 12:24:45;;;;;;;9.40;3.90;;;16.70;99.90;;;;;;6048738;23;20085;-88
2022/10/05 12:27:21;;;;;;;7.95;3.50;;;16.40;99.90;;;;;;6043551;23;20022;-87
2022/10/05 12:29:55;;;;;;;8.70;3.88;;;16.40;99.90;;;;;;6067649;23;20018;-87
2022/10/05 12:32:39;;;;;;;8.38;3.75;;;16.50;99.90;;;;;;6043129;23;20100;-87
2022/10/05 12:35:10;;;;;;;8.88;3.83;;;16.50;99.90;;;;;;6043498;23;20025;-90
2022/10/05 12:37:57;;;;;;;8.95;3.90;;;16.50;99.90;;;;;;6067714;23;20022;-88
2022/10/05 12:40:29;;;;;;;8.70;4.03;;;16.50;99.90;;;;;;6066923;23;20015;-89
2022/10/05 12:43:17;;;;;;;8.63;3.95;;;16.50;99.90;;;;;;6066858;23;20015;-89
2022/10/05 12:46:02;;;;;;;9.90;3.88;;;16.50;99.90;;;;;;6043289;23;20010;-87
2022/10/05 12:49:13;;;;;;;9.27;4.22;;;16.50;99.90;;;;;;6042823;23;20030;-89
2022/10/05 12:51:57;;;;;;;8.10;3.90;;;16.50;99.90;;;;;;5964066;23;20025;-88
2022/10/05 12:54:45;;;;;;;8.85;3.53;;;16.50;99.90;;;;;;6042142;23;20105;-89
2022/10/05 12:57:32;;;;;;;8.10;3.70;;;16.50;99.90;;;;;;6067153;23;20030;-89
2022/10/05 13:00:13;;;;;;;8.38;3.65;;;16.50;99.90;;;;;;6042534;23;20061;-88
2022/10/05 13:02:47;;;;;;;10.93;3.88;;;16.40;99.90;;;;;;6067186;23;20500;-89
2022/10/05 13:05:53;;;;;;;7.72;3.30;;;16.50;99.90;;;;;;6041632;23;20098;-88
2022/10/05 13:08:45;;;;;;;10.77;3.83;;;16.50;99.90;;;;;;5999767;23;20010;-87
2022/10/05 13:11:35;;;;;;;7.82;3.47;;;16.50;99.90;;;;;;6043096;23;20014;-89
2022/10/05 13:14:41;;;;;;;6.95;2.97;;;16.50;99.90;;;;;;6042041;23;20332;-88
2022/10/05 13:17:19;;;;;;;8.32;3.60;;;16.50;99.90;;;;;;6053879;23;20010;-87
2022/10/05 13:20:31;;;;;;;8.55;3.45;;;16.50;99.90;;;;;;6086461;23;20050;-88
2022/10/05 13:23:23;;;;;;;9.55;3.33;;;16.60;99.90;;;;;;6059733;23;20011;-88
2022/10/05 13:25:56;;;;;;;10.02;3.10;;;16.60;99.90;;;;;;6042713;23;20382;-88
2022/10/05 13:28:28;;;;;;;8.23;3.50;;;16.70;99.90;;;;;;6039203;23;20110;-88
2022/10/05 13:31:05;;;;;;;9.70;3.13;;;16.70;99.90;;;;;;6065649;23;20174;-91
2022/10/05 13:33:53;;;;;;;8.55;3.20;;;16.80;99.90;;;;;;6042817;23;20022;-88
2022/10/05 13:36:58;;;;;;;8.35;2.88;;;17.00;99.90;;;;;;6066603;23;20093;-88
2022/10/05 13:39:31;;;;;;;8.65;3.20;;;17.00;99.90;;;;;;5980207;23;20055;-87
2022/10/05 13:42:00;;;;;;;8.82;2.95;;;17.10;99.90;;;;;;6024097;23;20077;-87
2022/10/05 13:44:47;;;;;;;8.50;3.20;;;17.10;99.90;;;;;;6062779;23;20349;-88
2022/10/05 13:47:41;;;;;;;7.50;3.25;;;17.10;99.90;;;;;;6044530;23;20017;-87
2022/10/05 13:50:25;;;;;;;8.30;3.47;;;17.10;99.90;;;;;;6055540;23;20339;-89
2022/10/05 13:53:28;;;;;;;8.05;3.35;;;17.00;99.90;;;;;;6038972;23;20030;-89
2022/10/05 13:56:16;;;;;;;9.10;3.35;;;17.10;99.90;;;;;;6040048;23;20479;-88
2022/10/05 13:58:47;;;;;;;7.93;3.28;;;17.10;99.90;;;;;;6068603;23;20022;-87
2022/10/05 14:01:34;;;;;;;7.80;2.97;;;17.30;99.90;;;;;;6044824;23;20065;-87
2022/10/05 14:04:20;;;;;;;8.60;3.05;;;17.50;99.90;;;;;;6068505;23;20337;-87